BAW479 EGKK-EHAM
Flight info
| Callsign | BAW479 |
|---|---|
| Flight time | 0h 42m |
| Altitude | 29000 |
| Route | FRANE M604 GASBA M197 REDFA |
| Aircraft | A20N/M-SDE2E3FGHIRWXY/LB1 |
Departure
| Time | 2026-05-07 10:00 |
|---|---|
| Airport | London Gatwick Airport (EGKK) |
Arrival
| Time | 2026-05-07 10:43 |
|---|---|
| Airport | Amsterdam Airport Schiphol (EHAM) |
| Time | Latitude | Longitude | Altitude | Speed | Heading |
|---|---|---|---|---|---|
| 2026-05-07 09:39 | 51.15404 | -0.16413 | 205 ft | 0 kts | 77° |
| 2026-05-07 09:49 | 51.15402 | -0.16426 | 216 ft | 2 kts | 77° |
| 2026-05-07 09:49 | 51.15400 | -0.16441 | 215 ft | 0 kts | 76° |
| 2026-05-07 09:49 | 51.15397 | -0.16459 | 215 ft | 2 kts | 74° |
| 2026-05-07 09:50 | 51.15395 | -0.16473 | 215 ft | 2 kts | 70° |
| 2026-05-07 09:50 | 51.15387 | -0.16496 | 218 ft | 2 kts | 12° |
| 2026-05-07 09:50 | 51.15377 | -0.16496 | 217 ft | 1 kts | 348° |
| 2026-05-07 09:50 | 51.15376 | -0.16496 | 217 ft | 0 kts | 348° |
| 2026-05-07 09:51 | 51.15383 | -0.16499 | 217 ft | 4 kts | 348° |
| 2026-05-07 09:51 | 51.15414 | -0.16554 | 214 ft | 10 kts | 269° |
| 2026-05-07 09:52 | 51.15398 | -0.16677 | 212 ft | 4 kts | 257° |
| 2026-05-07 09:52 | 51.15396 | -0.16695 | 209 ft | 4 kts | 257° |
| 2026-05-07 09:52 | 51.15378 | -0.16804 | 210 ft | 16 kts | 255° |
| 2026-05-07 09:52 | 51.15352 | -0.16987 | 205 ft | 17 kts | 258° |
| 2026-05-07 09:53 | 51.15330 | -0.17154 | 213 ft | 16 kts | 258° |
| 2026-05-07 09:53 | 51.15306 | -0.17341 | 207 ft | 19 kts | 262° |
| 2026-05-07 09:53 | 51.15287 | -0.17560 | 215 ft | 21 kts | 258° |
| 2026-05-07 09:53 | 51.15254 | -0.17802 | 208 ft | 23 kts | 258° |
| 2026-05-07 09:54 | 51.15218 | -0.18052 | 210 ft | 22 kts | 257° |
| 2026-05-07 09:54 | 51.15188 | -0.18279 | 213 ft | 18 kts | 262° |
| 2026-05-07 09:54 | 51.15164 | -0.18492 | 208 ft | 21 kts | 257° |
| 2026-05-07 09:54 | 51.15132 | -0.18733 | 204 ft | 23 kts | 257° |
| 2026-05-07 09:55 | 51.15097 | -0.18976 | 210 ft | 21 kts | 258° |
| 2026-05-07 09:55 | 51.15066 | -0.19214 | 205 ft | 23 kts | 257° |
| 2026-05-07 09:55 | 51.15029 | -0.19481 | 215 ft | 25 kts | 258° |
| 2026-05-07 09:55 | 51.14991 | -0.19751 | 205 ft | 24 kts | 257° |
| 2026-05-07 09:56 | 51.14967 | -0.19928 | 209 ft | 10 kts | 257° |
| 2026-05-07 09:56 | 51.14949 | -0.20059 | 206 ft | 15 kts | 257° |
| 2026-05-07 09:56 | 51.14923 | -0.20247 | 204 ft | 20 kts | 257° |
| 2026-05-07 09:56 | 51.14890 | -0.20481 | 204 ft | 24 kts | 258° |
| 2026-05-07 09:57 | 51.14852 | -0.20751 | 209 ft | 21 kts | 258° |
| 2026-05-07 09:57 | 51.14820 | -0.20998 | 206 ft | 24 kts | 258° |
| 2026-05-07 09:57 | 51.14779 | -0.21228 | 205 ft | 22 kts | 257° |
| 2026-05-07 09:57 | 51.14732 | -0.21406 | 212 ft | 8 kts | 196° |
| 2026-05-07 09:58 | 51.14664 | -0.21369 | 212 ft | 14 kts | 138° |
| 2026-05-07 09:58 | 51.14561 | -0.21300 | 207 ft | 18 kts | 149° |
| 2026-05-07 09:58 | 51.14528 | -0.21113 | 215 ft | 19 kts | 74° |
| 2026-05-07 09:58 | 51.14535 | -0.21071 | 213 ft | 0 kts | 75° |
| 2026-05-07 09:59 | 51.14559 | -0.20909 | 211 ft | 46 kts | 78° |
| 2026-05-07 10:00 | 51.14675 | -0.20053 | 207 ft | 109 kts | 77° |
| 2026-05-07 10:00 | 51.14875 | -0.18617 | 219 ft | 154 kts | 76° |
| 2026-05-07 10:00 | 51.15114 | -0.16925 | 700 ft | 157 kts | 78° |
| 2026-05-07 10:00 | 51.15345 | -0.15221 | 1364 ft | 160 kts | 79° |
| 2026-05-07 10:01 | 51.15578 | -0.13511 | 1987 ft | 162 kts | 79° |
| 2026-05-07 10:01 | 51.15829 | -0.11659 | 2371 ft | 180 kts | 79° |
| 2026-05-07 10:01 | 51.16112 | -0.09603 | 2712 ft | 200 kts | 78° |
| 2026-05-07 10:01 | 51.16427 | -0.07304 | 3024 ft | 226 kts | 78° |
| 2026-05-07 10:02 | 51.16768 | -0.04733 | 3542 ft | 250 kts | 81° |
| 2026-05-07 10:02 | 51.16881 | -0.01862 | 4232 ft | 267 kts | 92° |
| 2026-05-07 10:02 | 51.16816 | 0.01020 | 4391 ft | 268 kts | 93° |
| 2026-05-07 10:02 | 51.16761 | 0.03929 | 4494 ft | 264 kts | 92° |
| 2026-05-07 10:03 | 51.16708 | 0.06881 | 4717 ft | 270 kts | 92° |
| 2026-05-07 10:03 | 51.16655 | 0.09843 | 5543 ft | 272 kts | 92° |
| 2026-05-07 10:03 | 51.16601 | 0.12855 | 6615 ft | 273 kts | 92° |
| 2026-05-07 10:03 | 51.16544 | 0.15933 | 6976 ft | 280 kts | 92° |
| 2026-05-07 10:04 | 51.16526 | 0.19019 | 7050 ft | 279 kts | 91° |
| 2026-05-07 10:04 | 51.16542 | 0.22136 | 7455 ft | 283 kts | 90° |
| 2026-05-07 10:04 | 51.16625 | 0.25294 | 7965 ft | 289 kts | 79° |
| 2026-05-07 10:04 | 51.17363 | 0.28105 | 8068 ft | 283 kts | 53° |
| 2026-05-07 10:05 | 51.18827 | 0.30185 | 8194 ft | 286 kts | 32° |
| 2026-05-07 10:05 | 51.20523 | 0.31839 | 8306 ft | 285 kts | 31° |
| 2026-05-07 10:05 | 51.22216 | 0.33474 | 8426 ft | 286 kts | 31° |
| 2026-05-07 10:05 | 51.23935 | 0.35138 | 9004 ft | 290 kts | 31° |
| 2026-05-07 10:06 | 51.25679 | 0.36823 | 9223 ft | 290 kts | 31° |
| 2026-05-07 10:06 | 51.27384 | 0.38471 | 9342 ft | 285 kts | 31° |
| 2026-05-07 10:06 | 51.29096 | 0.40122 | 9533 ft | 289 kts | 31° |
| 2026-05-07 10:06 | 51.30829 | 0.41791 | 10138 ft | 294 kts | 31° |
| 2026-05-07 10:07 | 51.32673 | 0.43570 | 10341 ft | 324 kts | 31° |
| 2026-05-07 10:07 | 51.34653 | 0.45483 | 11045 ft | 338 kts | 31° |
| 2026-05-07 10:07 | 51.36651 | 0.47420 | 11862 ft | 342 kts | 31° |
| 2026-05-07 10:07 | 51.38707 | 0.49429 | 12438 ft | 349 kts | 31° |
| 2026-05-07 10:08 | 51.40768 | 0.51451 | 12574 ft | 347 kts | 31° |
| 2026-05-07 10:08 | 51.42829 | 0.53477 | 12705 ft | 349 kts | 31° |
| 2026-05-07 10:08 | 51.44930 | 0.55426 | 12834 ft | 349 kts | 23° |
| 2026-05-07 10:08 | 51.47201 | 0.56911 | 13329 ft | 354 kts | 21° |
| 2026-05-07 10:09 | 51.49493 | 0.58372 | 14220 ft | 355 kts | 21° |
| 2026-05-07 10:09 | 51.51800 | 0.59839 | 14968 ft | 360 kts | 21° |
| 2026-05-07 10:09 | 51.54101 | 0.61307 | 15633 ft | 365 kts | 21° |
| 2026-05-07 10:09 | 51.56467 | 0.62819 | 16392 ft | 368 kts | 21° |
| 2026-05-07 10:10 | 51.58860 | 0.64353 | 17110 ft | 373 kts | 21° |
| 2026-05-07 10:10 | 51.61287 | 0.65911 | 17808 ft | 377 kts | 21° |
| 2026-05-07 10:10 | 51.63734 | 0.67484 | 18502 ft | 381 kts | 21° |
| 2026-05-07 10:10 | 51.65375 | 0.68541 | 18885 ft | 384 kts | 21° |
| 2026-05-07 10:11 | 51.67864 | 0.70144 | 19533 ft | 387 kts | 21° |
| 2026-05-07 10:11 | 51.70385 | 0.71771 | 19725 ft | 390 kts | 21° |
| 2026-05-07 10:11 | 51.72908 | 0.73400 | 19880 ft | 391 kts | 21° |
| 2026-05-07 10:11 | 51.75443 | 0.75039 | 20347 ft | 394 kts | 21° |
| 2026-05-07 10:12 | 51.77995 | 0.76694 | 21034 ft | 396 kts | 22° |
| 2026-05-07 10:12 | 51.81075 | 0.79859 | 21847 ft | 401 kts | 44° |
| 2026-05-07 10:12 | 51.82315 | 0.82152 | 22246 ft | 402 kts | 55° |
| 2026-05-07 10:12 | 51.83601 | 0.86157 | 22894 ft | 403 kts | 71° |
| 2026-05-07 10:13 | 51.84453 | 0.90414 | 23431 ft | 407 kts | 73° |
| 2026-05-07 10:13 | 51.85269 | 0.94814 | 24015 ft | 409 kts | 74° |
| 2026-05-07 10:13 | 51.86084 | 0.99224 | 24550 ft | 411 kts | 73° |
| 2026-05-07 10:13 | 51.86917 | 1.03662 | 25044 ft | 413 kts | 73° |
| 2026-05-07 10:14 | 51.87766 | 1.08125 | 25569 ft | 415 kts | 73° |
| 2026-05-07 10:14 | 51.88621 | 1.12593 | 26077 ft | 417 kts | 73° |
| 2026-05-07 10:14 | 51.89482 | 1.17086 | 26546 ft | 419 kts | 73° |
| 2026-05-07 10:14 | 51.90321 | 1.21466 | 27051 ft | 420 kts | 73° |
| 2026-05-07 10:15 | 51.91188 | 1.26003 | 27468 ft | 423 kts | 73° |
| 2026-05-07 10:15 | 51.92044 | 1.30498 | 27991 ft | 423 kts | 73° |
| 2026-05-07 10:15 | 51.92913 | 1.35072 | 28351 ft | 427 kts | 73° |
| 2026-05-07 10:15 | 51.93787 | 1.39681 | 28777 ft | 428 kts | 73° |
| 2026-05-07 10:16 | 51.94662 | 1.44314 | 28976 ft | 432 kts | 73° |
| 2026-05-07 10:16 | 51.95539 | 1.48967 | 29094 ft | 431 kts | 73° |
| 2026-05-07 10:16 | 51.96395 | 1.53516 | 29097 ft | 432 kts | 73° |
| 2026-05-07 10:17 | 51.98136 | 1.62803 | 29095 ft | 431 kts | 73° |
| 2026-05-07 10:17 | 51.99753 | 1.72175 | 29054 ft | 430 kts | 76° |
| 2026-05-07 10:17 | 52.00463 | 1.76754 | 28787 ft | 431 kts | 76° |
| 2026-05-07 10:18 | 52.01201 | 1.81461 | 28935 ft | 434 kts | 76° |
| 2026-05-07 10:18 | 52.01933 | 1.86145 | 29076 ft | 434 kts | 76° |
| 2026-05-07 10:18 | 52.02654 | 1.90781 | 29096 ft | 431 kts | 76° |
| 2026-05-07 10:18 | 52.03382 | 1.95486 | 28854 ft | 427 kts | 76° |
| 2026-05-07 10:19 | 52.04096 | 2.00123 | 28306 ft | 425 kts | 76° |
| 2026-05-07 10:19 | 52.04809 | 2.04771 | 27678 ft | 422 kts | 75° |
| 2026-05-07 10:19 | 52.05520 | 2.09382 | 26974 ft | 420 kts | 76° |
| 2026-05-07 10:19 | 52.06222 | 2.13959 | 26359 ft | 416 kts | 75° |
| 2026-05-07 10:20 | 52.07229 | 2.18368 | 25674 ft | 415 kts | 66° |
| 2026-05-07 10:20 | 52.08368 | 2.22663 | 25067 ft | 412 kts | 66° |
| 2026-05-07 10:20 | 52.09499 | 2.26936 | 24442 ft | 411 kts | 66° |
| 2026-05-07 10:20 | 52.10624 | 2.31197 | 23833 ft | 409 kts | 66° |
| 2026-05-07 10:21 | 52.11741 | 2.35443 | 23298 ft | 404 kts | 67° |
| 2026-05-07 10:21 | 52.12803 | 2.39491 | 23128 ft | 401 kts | 67° |
| 2026-05-07 10:21 | 52.13854 | 2.43509 | 23100 ft | 407 kts | 67° |
| 2026-05-07 10:21 | 52.14966 | 2.47770 | 23096 ft | 407 kts | 67° |
| 2026-05-07 10:22 | 52.16071 | 2.52010 | 22941 ft | 406 kts | 67° |
| 2026-05-07 10:22 | 52.17166 | 2.56222 | 22573 ft | 402 kts | 67° |
| 2026-05-07 10:22 | 52.18254 | 2.60416 | 21986 ft | 401 kts | 67° |
| 2026-05-07 10:22 | 52.19318 | 2.64522 | 21464 ft | 396 kts | 67° |
| 2026-05-07 10:23 | 52.20389 | 2.68668 | 20793 ft | 396 kts | 67° |
| 2026-05-07 10:23 | 52.21450 | 2.72778 | 20264 ft | 391 kts | 67° |
| 2026-05-07 10:23 | 52.22499 | 2.76851 | 19676 ft | 389 kts | 67° |
| 2026-05-07 10:23 | 52.23530 | 2.80858 | 19131 ft | 386 kts | 67° |
| 2026-05-07 10:24 | 52.24574 | 2.84927 | 18598 ft | 383 kts | 67° |
| 2026-05-07 10:24 | 52.25599 | 2.88928 | 18002 ft | 380 kts | 67° |
| 2026-05-07 10:24 | 52.26610 | 2.92878 | 17478 ft | 375 kts | 67° |
| 2026-05-07 10:24 | 52.27611 | 2.96800 | 16868 ft | 373 kts | 67° |
| 2026-05-07 10:25 | 52.28592 | 3.00646 | 16376 ft | 369 kts | 67° |
| 2026-05-07 10:25 | 52.29572 | 3.04500 | 15794 ft | 367 kts | 66° |
| 2026-05-07 10:25 | 52.30547 | 3.08336 | 15281 ft | 363 kts | 67° |
| 2026-05-07 10:25 | 52.31508 | 3.12126 | 14771 ft | 360 kts | 66° |
| 2026-05-07 10:26 | 52.32463 | 3.15896 | 14255 ft | 357 kts | 66° |
| 2026-05-07 10:26 | 52.33408 | 3.19633 | 13775 ft | 353 kts | 66° |
| 2026-05-07 10:26 | 52.34343 | 3.23338 | 13206 ft | 351 kts | 66° |
| 2026-05-07 10:26 | 52.35270 | 3.27014 | 12688 ft | 348 kts | 67° |
| 2026-05-07 10:27 | 52.36186 | 3.30653 | 12149 ft | 343 kts | 67° |
| 2026-05-07 10:27 | 52.37092 | 3.34264 | 11576 ft | 342 kts | 67° |
| 2026-05-07 10:27 | 52.37984 | 3.37842 | 11091 ft | 338 kts | 68° |
| 2026-05-07 10:27 | 52.38869 | 3.41397 | 10592 ft | 336 kts | 68° |
| 2026-05-07 10:28 | 52.39748 | 3.44921 | 10214 ft | 330 kts | 68° |
| 2026-05-07 10:28 | 52.40597 | 3.48321 | 10085 ft | 316 kts | 68° |
| 2026-05-07 10:28 | 52.41408 | 3.51573 | 9928 ft | 300 kts | 68° |
| 2026-05-07 10:28 | 52.42181 | 3.54672 | 9686 ft | 289 kts | 68° |
| 2026-05-07 10:29 | 52.42935 | 3.57699 | 9321 ft | 285 kts | 68° |
| 2026-05-07 10:29 | 52.43682 | 3.60704 | 8900 ft | 284 kts | 68° |
| 2026-05-07 10:29 | 52.44423 | 3.63685 | 8511 ft | 282 kts | 68° |
| 2026-05-07 10:30 | 52.45897 | 3.69608 | 7718 ft | 279 kts | 69° |
| 2026-05-07 10:30 | 52.46620 | 3.72545 | 7363 ft | 276 kts | 68° |
| 2026-05-07 10:30 | 52.47335 | 3.75458 | 7092 ft | 272 kts | 68° |
| 2026-05-07 10:30 | 52.48054 | 3.78376 | 7020 ft | 279 kts | 68° |
| 2026-05-07 10:31 | 52.48781 | 3.81324 | 7017 ft | 277 kts | 68° |
| 2026-05-07 10:31 | 52.49501 | 3.84240 | 6780 ft | 275 kts | 68° |
| 2026-05-07 10:31 | 52.50094 | 3.87228 | 6351 ft | 276 kts | 84° |
| 2026-05-07 10:31 | 52.49902 | 3.90310 | 5994 ft | 271 kts | 109° |
| 2026-05-07 10:32 | 52.49063 | 3.93057 | 5579 ft | 269 kts | 129° |
| 2026-05-07 10:32 | 52.47847 | 3.95392 | 5162 ft | 269 kts | 132° |
| 2026-05-07 10:32 | 52.46612 | 3.97689 | 4766 ft | 269 kts | 132° |
| 2026-05-07 10:32 | 52.45355 | 3.99965 | 4316 ft | 270 kts | 132° |
| 2026-05-07 10:33 | 52.44070 | 4.02180 | 4074 ft | 264 kts | 132° |
| 2026-05-07 10:33 | 52.42813 | 4.04358 | 4018 ft | 265 kts | 132° |
| 2026-05-07 10:33 | 52.41548 | 4.06560 | 4015 ft | 265 kts | 132° |
| 2026-05-07 10:33 | 52.40281 | 4.08750 | 4013 ft | 265 kts | 132° |
| 2026-05-07 10:34 | 52.39039 | 4.10919 | 4013 ft | 264 kts | 132° |
| 2026-05-07 10:34 | 52.37831 | 4.13032 | 4013 ft | 265 kts | 132° |
| 2026-05-07 10:34 | 52.36563 | 4.15233 | 4013 ft | 265 kts | 132° |
| 2026-05-07 10:34 | 52.35279 | 4.17446 | 4007 ft | 264 kts | 132° |
| 2026-05-07 10:35 | 52.34017 | 4.19630 | 4011 ft | 265 kts | 132° |
| 2026-05-07 10:35 | 52.32761 | 4.21783 | 4009 ft | 264 kts | 132° |
| 2026-05-07 10:35 | 52.31494 | 4.23962 | 4010 ft | 265 kts | 132° |
| 2026-05-07 10:35 | 52.30221 | 4.26129 | 3929 ft | 262 kts | 132° |
| 2026-05-07 10:36 | 52.28967 | 4.28278 | 3622 ft | 261 kts | 132° |
| 2026-05-07 10:36 | 52.27739 | 4.30365 | 3291 ft | 260 kts | 132° |
| 2026-05-07 10:36 | 52.26490 | 4.32488 | 2930 ft | 258 kts | 132° |
| 2026-05-07 10:36 | 52.25252 | 4.34610 | 2572 ft | 257 kts | 132° |
| 2026-05-07 10:37 | 52.24020 | 4.36719 | 2211 ft | 256 kts | 132° |
| 2026-05-07 10:37 | 52.22813 | 4.38767 | 2031 ft | 248 kts | 132° |
| 2026-05-07 10:37 | 52.21734 | 4.40856 | 1998 ft | 233 kts | 117° |
| 2026-05-07 10:37 | 52.21327 | 4.43282 | 2013 ft | 216 kts | 93° |
| 2026-05-07 10:38 | 52.21217 | 4.45782 | 2014 ft | 225 kts | 92° |
| 2026-05-07 10:38 | 52.21103 | 4.48327 | 1994 ft | 224 kts | 94° |
| 2026-05-07 10:38 | 52.21058 | 4.49180 | 2005 ft | 223 kts | 94° |
| 2026-05-07 10:38 | 52.21032 | 4.49643 | 2005 ft | 223 kts | 94° |
| 2026-05-07 10:39 | 52.21019 | 4.51955 | 2006 ft | 224 kts | 79° |
| 2026-05-07 10:39 | 52.21041 | 4.52188 | 1999 ft | 224 kts | 77° |
| 2026-05-07 10:39 | 52.21494 | 4.54413 | 1989 ft | 214 kts | 64° |
| 2026-05-07 10:39 | 52.22188 | 4.56511 | 1993 ft | 200 kts | 58° |
| 2026-05-07 10:40 | 52.22892 | 4.58331 | 2009 ft | 178 kts | 56° |
| 2026-05-07 10:40 | 52.23510 | 4.59923 | 1990 ft | 155 kts | 56° |
| 2026-05-07 10:40 | 52.24066 | 4.61355 | 1819 ft | 144 kts | 56° |
| 2026-05-07 10:40 | 52.24584 | 4.62680 | 1603 ft | 132 kts | 56° |
| 2026-05-07 10:41 | 52.25063 | 4.63903 | 1431 ft | 124 kts | 56° |
| 2026-05-07 10:41 | 52.25525 | 4.65090 | 1251 ft | 125 kts | 54° |
| 2026-05-07 10:41 | 52.25997 | 4.66297 | 1078 ft | 124 kts | 55° |
| 2026-05-07 10:41 | 52.26450 | 4.67461 | 931 ft | 122 kts | 56° |
| 2026-05-07 10:42 | 52.26913 | 4.68654 | 747 ft | 124 kts | 55° |
| 2026-05-07 10:42 | 52.27386 | 4.69841 | 576 ft | 125 kts | 55° |
| 2026-05-07 10:42 | 52.27855 | 4.70994 | 421 ft | 122 kts | 54° |
| 2026-05-07 10:42 | 52.28324 | 4.72158 | 285 ft | 120 kts | 55° |
| 2026-05-07 10:43 | 52.28766 | 4.73330 | 105 ft | 122 kts | 57° |
| 2026-05-07 10:43 | 52.29207 | 4.74475 | 20 ft | 115 kts | 58° |
| 2026-05-07 10:43 | 52.29500 | 4.75243 | 15 ft | 42 kts | 58° |
| 2026-05-07 10:43 | 52.29655 | 4.75333 | 17 ft | 26 kts | 328° |
| 2026-05-07 10:44 | 52.29692 | 4.75293 | 16 ft | 3 kts | 328° |
| 2026-05-07 10:44 | 52.29737 | 4.75276 | 15 ft | 9 kts | 355° |
| 2026-05-07 10:44 | 52.29749 | 4.75280 | 15 ft | 3 kts | 20° |
| 2026-05-07 10:44 | 52.29777 | 4.75407 | 17 ft | 16 kts | 74° |
| 2026-05-07 10:45 | 52.29842 | 4.75594 | 17 ft | 21 kts | 57° |
| 2026-05-07 10:45 | 52.29920 | 4.75797 | 14 ft | 22 kts | 58° |
| 2026-05-07 10:45 | 52.29981 | 4.75958 | 12 ft | 11 kts | 58° |
| 2026-05-07 10:45 | 52.30019 | 4.76058 | 12 ft | 12 kts | 58° |
| 2026-05-07 10:46 | 52.30070 | 4.76194 | 11 ft | 15 kts | 57° |
| 2026-05-07 10:46 | 52.30128 | 4.76342 | 14 ft | 16 kts | 57° |
| 2026-05-07 10:46 | 52.30193 | 4.76510 | 14 ft | 19 kts | 57° |
| 2026-05-07 10:46 | 52.30257 | 4.76673 | 13 ft | 18 kts | 57° |
| 2026-05-07 10:47 | 52.30332 | 4.76861 | 11 ft | 21 kts | 57° |
| 2026-05-07 10:47 | 52.30403 | 4.77030 | 9 ft | 17 kts | 33° |
| 2026-05-07 10:47 | 52.30513 | 4.76966 | 7 ft | 20 kts | 327° |
| 2026-05-07 10:47 | 52.30634 | 4.76873 | 3 ft | 17 kts | 12° |
| 2026-05-07 10:48 | 52.30657 | 4.77001 | 4 ft | 7 kts | 73° |
| 2026-05-07 10:48 | 52.30712 | 4.77027 | 2 ft | 6 kts | 3° |
| 2026-05-07 10:48 | 52.30720 | 4.77028 | 2 ft | 0 kts | 2° |